createdAt,value
2018-08-23T00:01:27.555Z,21.04
2018-08-23T00:03:59.070Z,21.10
2018-08-23T00:06:27.846Z,21.15
2018-08-23T00:08:58.476Z,21.14
2018-08-23T00:11:30.176Z,21.13
2018-08-23T00:13:59.281Z,21.10
2018-08-23T00:16:35.539Z,21.12
2018-08-23T00:19:05.203Z,21.03
2018-08-23T00:21:38.555Z,21.01
2018-08-23T00:24:10.242Z,21.05
2018-08-23T00:26:42.372Z,21.04
2018-08-23T00:29:28.862Z,21.05
2018-08-23T00:31:59.376Z,20.96
2018-08-23T00:34:30.375Z,20.83
2018-08-23T00:37:00.107Z,20.74
2018-08-23T00:39:30.069Z,20.74
2018-08-23T00:42:04.249Z,20.76
2018-08-23T00:44:47.325Z,20.80
2018-08-23T00:47:16.379Z,20.83
2018-08-23T00:49:45.377Z,20.85
2018-08-23T00:52:15.692Z,20.87
2018-08-23T00:54:44.675Z,21.04
2018-08-23T00:57:13.700Z,20.98
2018-08-23T00:59:43.269Z,21.04
2018-08-23T01:02:12.280Z,20.99
2018-08-23T01:04:46.511Z,20.96
2018-08-23T01:07:24.728Z,20.90
2018-08-23T01:09:53.530Z,20.77
2018-08-23T01:12:22.593Z,20.84
2018-08-23T01:14:53.187Z,20.68
2018-08-23T01:17:22.428Z,20.63
2018-08-23T01:20:01.422Z,20.55
2018-08-23T01:22:30.604Z,20.46
2018-08-23T01:25:01.189Z,20.40
2018-08-23T01:27:35.431Z,20.34
2018-08-23T01:30:04.497Z,20.20
2018-08-23T01:32:34.166Z,20.04
2018-08-23T01:35:03.816Z,20.00
2018-08-23T01:37:41.468Z,19.93
2018-08-23T01:40:11.762Z,19.89
2018-08-23T01:42:41.897Z,19.91
2018-08-23T01:45:11.793Z,19.93
2018-08-23T01:48:11.869Z,19.89
2018-08-23T01:50:40.825Z,19.86
2018-08-23T01:53:09.717Z,19.85
2018-08-23T01:55:38.857Z,19.83
2018-08-23T01:58:07.928Z,19.83
2018-08-23T02:00:37.198Z,19.77
2018-08-23T02:03:06.382Z,19.73
2018-08-23T02:05:37.948Z,19.71
2018-08-23T02:08:07.785Z,19.66
2018-08-23T02:10:36.688Z,19.61
2018-08-23T02:13:10.650Z,19.66
2018-08-23T02:15:57.133Z,19.58
2018-08-23T02:18:25.876Z,19.56
2018-08-23T02:21:02.717Z,19.53
2018-08-23T02:23:31.776Z,19.55
2018-08-23T02:26:00.777Z,19.54
2018-08-23T02:28:29.772Z,19.55
2018-08-23T02:30:58.757Z,19.56
2018-08-23T02:33:27.794Z,19.56
2018-08-23T02:36:04.292Z,19.55
2018-08-23T02:38:33.528Z,19.59
2018-08-23T02:41:02.645Z,19.61
2018-08-23T02:43:31.700Z,19.67
2018-08-23T02:46:03.257Z,19.68
2018-08-23T02:48:33.876Z,19.83
2018-08-23T02:51:02.894Z,19.82
2018-08-23T02:53:36.363Z,19.80
2018-08-23T02:56:09.536Z,19.77
2018-08-23T02:58:50.764Z,19.74
2018-08-23T03:01:19.969Z,19.68
2018-08-23T03:04:01.601Z,19.66
2018-08-23T03:06:34.693Z,19.60
2018-08-23T03:09:04.031Z,19.57
2018-08-23T03:11:34.983Z,19.51
2018-08-23T03:14:04.243Z,19.55
2018-08-23T03:17:48.329Z,19.53
2018-08-23T03:20:19.600Z,19.50
2018-08-23T03:22:53.567Z,19.45
2018-08-23T03:25:23.644Z,19.26
2018-08-23T03:27:53.810Z,19.23
2018-08-23T03:30:23.573Z,19.09
2018-08-23T03:32:52.732Z,19.05
2018-08-23T03:35:21.496Z,19.00
2018-08-23T03:37:50.241Z,18.97
2018-08-23T03:40:18.972Z,18.90
2018-08-23T03:42:47.733Z,18.90
2018-08-23T03:45:30.853Z,18.90
2018-08-23T03:47:59.596Z,18.82
2018-08-23T03:50:28.518Z,18.81
2018-08-23T03:52:57.548Z,18.83
2018-08-23T03:55:26.919Z,18.78
2018-08-23T03:58:02.630Z,18.69
2018-08-23T04:00:36.812Z,18.68
2018-08-23T04:03:14.036Z,18.68
2018-08-23T04:05:42.830Z,18.69
2018-08-23T04:08:11.894Z,18.64
2018-08-23T04:10:40.792Z,18.62
2018-08-23T04:13:09.884Z,18.57
2018-08-23T04:15:41.051Z,18.67
2018-08-23T04:18:17.268Z,18.60
2018-08-23T04:20:53.868Z,18.52
2018-08-23T04:23:22.842Z,18.53
2018-08-23T04:25:51.936Z,18.56
2018-08-23T04:28:21.040Z,18.58
2018-08-23T04:30:50.162Z,18.60
2018-08-23T04:33:18.908Z,18.62
2018-08-23T04:35:47.664Z,18.65
2018-08-23T04:38:16.404Z,18.69
2018-08-23T04:40:58.364Z,18.76
2018-08-23T04:43:27.112Z,18.80
2018-08-23T04:45:55.865Z,18.82
2018-08-23T04:48:24.668Z,18.85
2018-08-23T04:50:53.737Z,18.93
2018-08-23T04:53:22.601Z,18.98
2018-08-23T04:55:52.688Z,19.05
2018-08-23T04:58:21.500Z,19.09
2018-08-23T05:00:50.711Z,19.11
2018-08-23T05:03:19.505Z,19.19
2018-08-23T05:05:48.264Z,19.27
2018-08-23T05:08:17.086Z,19.33
2018-08-23T05:10:45.929Z,19.34
2018-08-23T05:13:15.208Z,19.35
2018-08-23T05:15:44.257Z,19.40
2018-08-23T05:18:15.674Z,19.47
2018-08-23T05:20:48.368Z,19.44
2018-08-23T05:23:20.631Z,19.47
2018-08-23T05:25:49.714Z,19.53
2018-08-23T05:28:20.020Z,19.51
2018-08-23T05:30:50.879Z,19.55
2018-08-23T05:33:21.933Z,19.61
2018-08-23T05:35:51.072Z,19.67
2018-08-23T05:38:20.641Z,19.78
2018-08-23T05:41:00.435Z,19.86
2018-08-23T05:43:29.323Z,19.92
2018-08-23T05:45:58.412Z,19.84
2018-08-23T05:48:30.270Z,19.93
2018-08-23T05:51:05.175Z,19.96
2018-08-23T05:53:38.548Z,20.03
2018-08-23T05:56:08.113Z,20.00
2018-08-23T05:58:36.980Z,19.99
2018-08-23T06:01:06.094Z,20.03
2018-08-23T06:03:37.152Z,20.14
2018-08-23T06:06:06.332Z,20.16
2018-08-23T06:08:35.306Z,20.34
2018-08-23T06:11:08.025Z,20.56
2018-08-23T06:13:36.860Z,20.74
2018-08-23T06:16:05.676Z,20.75
2018-08-23T06:18:34.427Z,20.91
2018-08-23T06:21:03.205Z,20.94
2018-08-23T06:23:40.256Z,21.11
2018-08-23T06:26:09.021Z,21.05
2018-08-23T06:28:37.757Z,21.22
2018-08-23T06:31:06.540Z,21.25
2018-08-23T06:33:40.978Z,21.25
2018-08-23T06:36:10.684Z,21.16
2018-08-23T06:38:40.661Z,21.30
2018-08-23T06:41:09.691Z,21.27
2018-08-23T06:43:38.448Z,21.32
2018-08-23T06:46:07.285Z,21.56
2018-08-23T06:48:36.014Z,21.63
2018-08-23T06:51:05.619Z,21.71
2018-08-23T06:53:44.770Z,21.73
2018-08-23T06:56:14.107Z,21.73
2018-08-23T06:58:43.270Z,21.60
2018-08-23T07:01:27.076Z,21.52
2018-08-23T07:04:01.830Z,21.59
2018-08-23T07:06:31.269Z,21.52
2018-08-23T07:09:00.446Z,21.40
2018-08-23T07:11:29.250Z,21.54
2018-08-23T07:14:03.232Z,21.57
2018-08-23T07:16:32.256Z,21.51
2018-08-23T07:19:04.169Z,21.58
2018-08-23T07:21:33.145Z,21.48
2018-08-23T07:24:02.314Z,21.51
2018-08-23T07:26:31.061Z,21.60
2018-08-23T07:28:59.856Z,22.07
2018-08-23T07:31:28.620Z,22.75
2018-08-23T07:33:57.378Z,22.90
2018-08-23T07:36:28.561Z,22.63
2018-08-23T07:38:57.792Z,22.48
2018-08-23T07:41:26.784Z,22.71
2018-08-23T07:43:55.546Z,22.63
2018-08-23T07:46:24.296Z,23.39
2018-08-23T07:48:53.032Z,24.31
2018-08-23T07:51:24.511Z,24.62
2018-08-23T07:53:53.977Z,24.64
2018-08-23T07:56:28.283Z,24.24
2018-08-23T07:58:58.000Z,23.91
2018-08-23T08:01:28.453Z,23.65
2018-08-23T08:03:58.036Z,23.73
2018-08-23T08:06:27.663Z,24.48
2018-08-23T08:08:59.948Z,24.74
2018-08-23T08:11:34.532Z,24.84
2018-08-23T08:14:13.526Z,24.65
2018-08-23T08:16:42.347Z,25.17
2018-08-23T08:19:11.136Z,25.27
2018-08-23T08:21:39.959Z,25.53
2018-08-23T08:24:08.708Z,25.39
2018-08-23T08:26:37.461Z,25.23
2018-08-23T08:29:06.242Z,24.73
2018-08-23T08:31:34.984Z,24.54
2018-08-23T08:34:03.725Z,24.62
2018-08-23T08:36:33.404Z,24.59
2018-08-23T08:39:03.503Z,24.48
2018-08-23T08:41:35.263Z,24.56
2018-08-23T08:44:04.112Z,24.49
2018-08-23T08:46:32.857Z,24.14
2018-08-23T08:49:01.997Z,24.10
2018-08-23T08:51:31.948Z,23.96
2018-08-23T08:54:02.288Z,23.91
2018-08-23T08:56:48.390Z,24.00
2018-08-23T08:59:17.149Z,23.85
2018-08-23T09:01:45.895Z,23.80
2018-08-23T09:04:19.765Z,23.63
2018-08-23T09:06:48.649Z,23.53
2018-08-23T09:09:27.583Z,23.49
2018-08-23T09:11:59.167Z,23.41
2018-08-23T09:14:27.903Z,23.40
2018-08-23T09:16:56.681Z,23.45
2018-08-23T09:20:28.475Z,23.48
2018-08-23T09:22:57.177Z,23.35
2018-08-23T09:25:28.617Z,23.30
2018-08-23T09:27:57.348Z,23.25
2018-08-23T09:30:27.940Z,23.06
2018-08-23T09:32:57.042Z,23.16
2018-08-23T09:35:32.048Z,23.20
2018-08-23T09:38:02.261Z,23.37
2018-08-23T09:40:31.121Z,23.39
2018-08-23T09:43:03.342Z,23.35
2018-08-23T09:45:33.344Z,23.50
2018-08-23T09:48:02.107Z,23.61
2018-08-23T09:50:30.917Z,23.61
2018-08-23T09:52:59.711Z,23.53
2018-08-23T09:55:32.792Z,23.40
2018-08-23T09:58:01.616Z,23.52
2018-08-23T10:00:35.608Z,23.59
2018-08-23T10:03:09.473Z,23.52
2018-08-23T10:05:48.464Z,23.72
2018-08-23T10:08:22.910Z,23.86
2018-08-23T10:10:56.813Z,24.09
2018-08-23T10:13:30.699Z,24.50
2018-08-23T10:16:04.624Z,24.68
2018-08-23T10:18:38.525Z,24.71
2018-08-23T10:21:07.285Z,24.97
2018-08-23T10:23:36.044Z,25.23
2018-08-23T10:26:10.120Z,25.97
2018-08-23T10:28:44.009Z,26.40
2018-08-23T10:31:12.809Z,27.10
2018-08-23T10:33:41.539Z,27.27
2018-08-23T10:36:10.292Z,27.35
2018-08-23T10:38:39.556Z,28.01
2018-08-23T10:41:08.348Z,28.46
2018-08-23T10:43:42.284Z,28.73
2018-08-23T10:46:11.060Z,28.64
2018-08-23T10:48:39.808Z,27.85
2018-08-23T10:51:08.718Z,28.18
2018-08-23T10:53:37.493Z,28.90
2018-08-23T10:56:06.306Z,29.24
2018-08-23T10:58:35.057Z,29.74
2018-08-23T11:01:03.834Z,29.91
2018-08-23T11:03:32.588Z,30.05
2018-08-23T11:06:01.363Z,30.22
2018-08-23T11:08:32.981Z,30.13
2018-08-23T11:11:07.032Z,29.61
2018-08-23T11:13:40.974Z,29.82
2018-08-23T11:16:14.902Z,29.95
2018-08-23T11:18:48.849Z,29.59
2018-08-23T11:21:18.146Z,29.45
2018-08-23T11:23:47.400Z,29.58
2018-08-23T11:26:19.700Z,29.83
2018-08-23T11:28:49.113Z,29.32
2018-08-23T11:31:23.198Z,29.30
2018-08-23T11:33:52.114Z,28.26
2018-08-23T11:36:20.865Z,27.85
2018-08-23T11:38:49.864Z,27.89
2018-08-23T11:41:19.054Z,27.88
2018-08-23T11:43:47.868Z,27.65
2018-08-23T11:46:17.863Z,27.68
2018-08-23T11:48:47.197Z,27.79
2018-08-23T11:51:16.776Z,27.46
2018-08-23T11:53:46.087Z,27.12
2018-08-23T11:56:14.860Z,27.42
2018-08-23T11:58:43.872Z,27.55
2018-08-23T12:01:14.005Z,28.11
2018-08-23T12:03:43.073Z,28.85
2018-08-23T12:06:12.796Z,29.14
2018-08-23T12:08:41.984Z,29.41
2018-08-23T12:11:10.822Z,29.07
2018-08-23T12:13:39.755Z,29.23
2018-08-23T12:16:09.681Z,29.45
2018-08-23T12:18:39.216Z,29.45
2018-08-23T12:21:08.036Z,29.52
2018-08-23T12:23:36.888Z,29.58
2018-08-23T12:26:05.747Z,29.64
2018-08-23T12:28:39.843Z,29.79
2018-08-23T12:31:08.622Z,30.08
2018-08-23T12:33:37.372Z,30.31
2018-08-23T12:36:08.360Z,30.48
2018-08-23T12:38:42.232Z,30.60
2018-08-23T12:41:16.116Z,31.04
2018-08-23T12:43:51.377Z,31.19
2018-08-23T12:46:20.194Z,31.01
2018-08-23T12:48:48.984Z,30.72
2018-08-23T12:51:17.820Z,30.15
2018-08-23T12:53:46.565Z,30.31
2018-08-23T12:56:15.400Z,30.96
2018-08-23T12:58:44.189Z,31.32
2018-08-23T13:01:12.980Z,31.43
2018-08-23T13:03:41.778Z,31.38
2018-08-23T13:06:10.590Z,31.70
2018-08-23T13:08:39.367Z,31.35
2018-08-23T13:11:08.199Z,31.79
2018-08-23T13:13:36.882Z,31.80
2018-08-23T13:16:05.892Z,31.69
2018-08-23T13:18:34.762Z,31.62
2018-08-23T13:21:03.597Z,31.35
2018-08-23T13:23:32.402Z,31.47
2018-08-23T13:26:01.185Z,31.42
2018-08-23T13:28:29.951Z,31.47
2018-08-23T13:30:58.717Z,30.57
2018-08-23T13:33:27.694Z,30.53
2018-08-23T13:35:56.456Z,30.43
2018-08-23T13:38:25.196Z,30.40
2018-08-23T13:40:54.015Z,29.97
2018-08-23T13:43:22.834Z,29.37
2018-08-23T13:45:51.757Z,28.95
2018-08-23T13:48:20.537Z,28.72
2018-08-23T13:50:49.315Z,28.36
2018-08-23T13:53:18.092Z,28.39
2018-08-23T13:55:46.840Z,28.20
2018-08-23T13:58:15.688Z,28.08
2018-08-23T14:00:44.465Z,27.99
2018-08-23T14:03:13.236Z,28.12
2018-08-23T14:05:42.401Z,28.09
2018-08-23T14:08:11.176Z,27.98
2018-08-23T14:10:40.072Z,27.69
2018-08-23T14:13:08.945Z,27.33
2018-08-23T14:15:42.953Z,27.35
2018-08-23T14:18:11.724Z,27.40
2018-08-23T14:20:40.653Z,26.85
2018-08-23T14:23:09.408Z,26.58
2018-08-23T14:25:38.147Z,26.39
2018-08-23T14:28:07.217Z,26.28
2018-08-23T14:30:35.965Z,26.23
2018-08-23T14:33:04.736Z,26.19
2018-08-23T14:35:33.589Z,26.14
2018-08-23T14:38:02.384Z,26.03
2018-08-23T14:40:31.167Z,25.96
2018-08-23T14:42:59.930Z,26.01
2018-08-23T14:45:29.733Z,25.40
2018-08-23T14:48:03.806Z,25.08
2018-08-23T14:50:33.316Z,24.84
2018-08-23T14:53:02.089Z,24.41
2018-08-23T14:55:35.937Z,24.39
2018-08-23T14:58:04.742Z,24.38
2018-08-23T15:00:33.576Z,24.31
2018-08-23T15:03:02.497Z,24.09
2018-08-23T15:05:31.279Z,24.08
2018-08-23T15:08:00.040Z,23.94
2018-08-23T15:10:28.860Z,23.98
2018-08-23T15:12:57.735Z,23.84
2018-08-23T15:15:31.601Z,23.78
2018-08-23T15:18:00.344Z,23.70
2018-08-23T15:20:29.114Z,23.74
2018-08-23T15:22:57.845Z,23.81
2018-08-23T15:25:26.580Z,23.41
2018-08-23T15:27:55.408Z,23.07
2018-08-23T15:30:24.164Z,22.72
2018-08-23T15:32:52.931Z,22.73
2018-08-23T15:35:21.692Z,22.91
2018-08-23T15:37:50.432Z,22.99
2018-08-23T15:40:19.947Z,23.06
2018-08-23T15:42:48.690Z,22.94
2018-08-23T15:45:17.946Z,22.24
2018-08-23T15:47:46.747Z,22.11
2018-08-23T15:50:15.549Z,22.15
2018-08-23T15:52:44.380Z,22.13
2018-08-23T15:55:13.324Z,22.14
2018-08-23T15:57:42.288Z,22.33
2018-08-23T16:00:11.033Z,22.36
2018-08-23T16:02:39.824Z,22.48
2018-08-23T16:05:08.632Z,22.46
2018-08-23T16:07:37.401Z,22.37
2018-08-23T16:10:07.888Z,22.42
2018-08-23T16:12:36.828Z,22.42
2018-08-23T16:15:10.732Z,22.50
2018-08-23T16:17:44.588Z,22.45
2018-08-23T16:20:18.606Z,22.43
2018-08-23T16:22:47.390Z,22.11
2018-08-23T16:25:16.257Z,21.99
2018-08-23T16:27:45.011Z,22.06
2018-08-23T16:30:13.986Z,22.21
2018-08-23T16:32:43.008Z,22.25
2018-08-23T16:35:11.750Z,22.25
2018-08-23T16:37:40.722Z,22.16
2018-08-23T16:40:09.494Z,22.20
2018-08-23T16:42:38.246Z,22.31
2018-08-23T16:45:07.074Z,22.27
2018-08-23T16:47:35.833Z,22.18
2018-08-23T16:50:04.972Z,22.14
2018-08-23T16:52:33.886Z,22.23
2018-08-23T16:55:02.920Z,22.09
2018-08-23T16:57:31.684Z,22.18
2018-08-23T17:00:00.448Z,22.11
2018-08-23T17:02:29.255Z,22.13
2018-08-23T17:04:58.069Z,22.16
2018-08-23T17:07:26.897Z,22.20
2018-08-23T17:09:55.669Z,22.28
2018-08-23T17:12:24.565Z,22.34
2018-08-23T17:14:53.296Z,22.37
2018-08-23T17:17:29.853Z,22.25
2018-08-23T17:19:58.771Z,22.32
2018-08-23T17:22:27.698Z,22.43
2018-08-23T17:24:56.562Z,22.45
2018-08-23T17:27:26.909Z,22.49
2018-08-23T17:29:55.781Z,22.55
2018-08-23T17:32:26.445Z,22.55
2018-08-23T17:34:55.545Z,22.63
2018-08-23T17:37:25.857Z,22.77
2018-08-23T17:39:54.959Z,22.84
2018-08-23T17:42:27.917Z,22.88
2018-08-23T17:44:56.703Z,22.93
2018-08-23T17:47:25.554Z,22.65
2018-08-23T17:49:54.595Z,22.47
2018-08-23T17:52:23.362Z,22.52
2018-08-23T17:54:52.252Z,22.23
2018-08-23T17:57:20.996Z,22.13
2018-08-23T17:59:49.887Z,21.86
2018-08-23T18:02:18.741Z,21.66
2018-08-23T18:04:47.748Z,21.52
2018-08-23T18:07:16.626Z,21.47
2018-08-23T18:09:45.368Z,21.42
2018-08-23T18:12:14.392Z,21.47
2018-08-23T18:14:43.328Z,21.44
2018-08-23T18:17:12.069Z,21.32
2018-08-23T18:19:40.836Z,21.24
2018-08-23T18:22:09.624Z,21.09
2018-08-23T18:24:38.484Z,21.01
2018-08-23T18:27:07.461Z,21.03
2018-08-23T18:29:36.349Z,21.09
2018-08-23T18:32:05.165Z,21.05
2018-08-23T18:34:33.860Z,21.03
2018-08-23T18:37:02.599Z,21.06
2018-08-23T18:39:31.606Z,21.07
2018-08-23T18:42:00.344Z,21.03
2018-08-23T18:44:29.498Z,20.93
2018-08-23T18:46:58.272Z,20.94
2018-08-23T18:49:27.236Z,20.95
2018-08-23T18:51:56.394Z,20.92
2018-08-23T18:54:25.305Z,20.91
2018-08-23T18:56:54.357Z,20.92
2018-08-23T18:59:23.089Z,20.85
2018-08-23T19:01:51.840Z,20.80
2018-08-23T19:04:20.596Z,20.76
2018-08-23T19:06:49.373Z,20.77
2018-08-23T19:09:18.252Z,20.74
2018-08-23T19:11:47.067Z,20.73
2018-08-23T19:14:15.869Z,20.76
2018-08-23T19:16:49.828Z,20.71
2018-08-23T19:19:18.574Z,20.60
2018-08-23T19:21:47.393Z,20.59
2018-08-23T19:24:16.184Z,20.50
2018-08-23T19:26:44.935Z,20.43
2018-08-23T19:29:13.740Z,20.33
2018-08-23T19:31:42.575Z,20.38
2018-08-23T19:34:11.328Z,20.41
2018-08-23T19:36:40.488Z,20.43
2018-08-23T19:39:11.133Z,20.44
2018-08-23T19:41:40.208Z,20.27
2018-08-23T19:44:09.250Z,20.06
2018-08-23T19:46:43.259Z,20.04
2018-08-23T19:49:17.209Z,20.04
2018-08-23T19:51:45.984Z,19.94
2018-08-23T19:54:14.790Z,19.95
2018-08-23T19:56:43.544Z,19.95
2018-08-23T19:59:12.329Z,19.90
2018-08-23T20:01:41.065Z,19.98
2018-08-23T20:04:09.840Z,20.00
2018-08-23T20:06:38.670Z,20.02
2018-08-23T20:09:08.924Z,20.15
2018-08-23T20:11:37.685Z,20.18
2018-08-23T20:14:06.445Z,20.18
2018-08-23T20:16:35.223Z,20.12
2018-08-23T20:19:03.971Z,20.04
2018-08-23T20:21:32.737Z,19.87
2018-08-23T20:24:01.572Z,19.82
2018-08-23T20:26:30.348Z,19.80
2018-08-23T20:28:59.138Z,19.78
2018-08-23T20:31:27.909Z,19.85
2018-08-23T20:33:56.657Z,19.90
2018-08-23T20:36:25.400Z,19.89
2018-08-23T20:38:54.375Z,19.95
2018-08-23T20:41:23.226Z,19.85
2018-08-23T20:43:52.148Z,19.75
2018-08-23T20:46:20.898Z,19.78
2018-08-23T20:48:49.753Z,19.79
2018-08-23T20:51:18.601Z,19.70
2018-08-23T20:53:47.569Z,19.71
2018-08-23T20:56:16.683Z,19.69
2018-08-23T20:58:45.463Z,19.70
2018-08-23T21:01:14.236Z,19.77
2018-08-23T21:03:43.179Z,19.79
2018-08-23T21:06:11.921Z,19.80
2018-08-23T21:08:40.937Z,19.82
2018-08-23T21:11:09.761Z,19.85
2018-08-23T21:13:38.683Z,19.82
2018-08-23T21:16:09.084Z,19.81
2018-08-23T21:18:38.002Z,19.83
2018-08-23T21:21:06.895Z,19.83
2018-08-23T21:23:36.044Z,19.86
2018-08-23T21:26:04.865Z,19.84
2018-08-23T21:28:35.145Z,19.84
2018-08-23T21:31:04.372Z,19.82
2018-08-23T21:33:33.304Z,19.82
2018-08-23T21:36:02.287Z,19.86
2018-08-23T21:38:31.168Z,19.82
2018-08-23T21:41:00.193Z,19.78
2018-08-23T21:43:28.953Z,19.78
2018-08-23T21:45:57.730Z,19.81
2018-08-23T21:48:26.503Z,19.77
2018-08-23T21:50:55.530Z,19.80
2018-08-23T21:53:27.559Z,19.79
2018-08-23T21:55:56.389Z,19.83
2018-08-23T21:58:25.462Z,19.84
2018-08-23T22:01:00.177Z,19.79
2018-08-23T22:03:28.936Z,19.81
2018-08-23T22:05:57.747Z,19.93
2018-08-23T22:08:26.554Z,19.97
2018-08-23T22:10:55.446Z,19.94
2018-08-23T22:13:24.277Z,19.91
2018-08-23T22:15:53.184Z,19.91
2018-08-23T22:18:21.994Z,19.88
2018-08-23T22:20:51.048Z,19.88
2018-08-23T22:23:19.886Z,19.89
2018-08-23T22:25:48.834Z,19.89
2018-08-23T22:28:17.834Z,19.84
2018-08-23T22:30:47.084Z,19.77
2018-08-23T22:33:16.025Z,19.69
2018-08-23T22:35:44.813Z,19.68
2018-08-23T22:38:13.652Z,19.73
2018-08-23T22:40:42.415Z,19.73
2018-08-23T22:43:11.202Z,19.71
2018-08-23T22:45:41.775Z,19.76
2018-08-23T22:48:10.606Z,19.74
2018-08-23T22:50:39.392Z,19.68
2018-08-23T22:53:09.735Z,19.66
2018-08-23T22:55:38.593Z,19.71
2018-08-23T22:58:08.318Z,19.73
2018-08-23T23:00:41.168Z,19.65
2018-08-23T23:03:15.854Z,19.62
2018-08-23T23:05:46.154Z,19.53
2018-08-23T23:08:16.649Z,19.38
2018-08-23T23:10:45.854Z,19.41
2018-08-23T23:13:14.629Z,19.41
2018-08-23T23:15:44.498Z,19.45
2018-08-23T23:18:13.292Z,19.44
2018-08-23T23:20:42.103Z,19.46
2018-08-23T23:23:12.438Z,19.52
2018-08-23T23:25:41.332Z,19.48
2018-08-23T23:28:12.206Z,19.47
2018-08-23T23:30:41.329Z,19.35
2018-08-23T23:33:10.107Z,19.37
2018-08-23T23:35:38.910Z,19.35
2018-08-23T23:38:07.679Z,19.35
2018-08-23T23:40:37.774Z,19.34
2018-08-23T23:43:08.542Z,19.32
2018-08-23T23:45:38.999Z,19.32
2018-08-23T23:48:08.570Z,19.37
2018-08-23T23:50:39.099Z,19.40
2018-08-23T23:53:08.080Z,19.32
2018-08-23T23:55:37.461Z,19.31
2018-08-23T23:58:06.589Z,19.40
